Flight Track Log - Related Links

Times and Time Zones

All times are in EDT time to prevent confusion due to time zone crossing. See the ASQ6115 flight status page for this flight to view local times or setup timezone preferences in your user account.

Time Position Orientation Groundspeed Altitude Reporting Facility
EDT Latitude Longitude Course Direction KTS MPH feet Rate Location/Type
Thu 09:30:30 PM 43.0258 -89.3017 164° South 233 268 7,100  Level Chicago Center
Thu 09:31:32 PM 42.9517 -89.2708 163° South 267 307 9,800 2,129 Climbing Chicago Center
Thu 09:32:00 PM 42.8644 -89.2159 166° South  Level FlightAware Approximate
Thu 09:32:34 PM 42.8631 -89.2350 163° South 319 367 11,500  Level Chicago Center
Thu 09:33:00 PM 42.7950 -89.1946 170° South  Level FlightAware Approximate
Thu 09:33:36 PM 42.7631 -89.1911 162° South 365 420 12,600  Level Chicago Center
Thu 09:34:00 PM 42.7260 -89.1726 162° South  Level FlightAware Approximate
Thu 09:34:38 PM 42.6594 -89.1486 163° South 384 442 13,000  Level Chicago Center
Thu 09:35:40 PM 42.5494 -89.0619 150° Southeast 407 468 13,000  Level Chicago Center
Thu 09:36:42 PM 42.5031 -88.9250 115° Southeast 405 466 13,000 -290 Level Chicago Center
Thu 09:37:44 PM 42.4617 -88.7894 112° Southeast 398 458 12,400 -871 Descending Chicago Center
Thu 09:38:46 PM 42.4219 -88.6569 112° Southeast 386 444 11,200 -1,161 Descending Chicago Center
Thu 09:39:48 PM 42.3819 -88.5236 112° Southeast 384 442 10,000 -585 Descending Chicago Center
Thu 09:40:49 PM 42.3314 -88.3753 115° Southeast 376 433 10,000  Level Chicago Center
Thu 09:41:51 PM 42.2700 -88.2725 129° Southeast 383 441 10,000 -145 Level Chicago Center
Thu 09:42:53 PM 42.2097 -88.1703 129° Southeast 349 402 9,700 -871 Descending Chicago Center
Thu 09:43:55 PM 42.1486 -88.0928 137° Southeast 309 356 8,200 -1,306 Descending Chicago Center
Thu 09:44:57 PM 42.0919 -87.9953 128° Southeast 280 322 7,000 -581 Descending Chicago Center
Thu 09:45:59 PM 42.0908 -87.8936 91° East 268 308 7,000 -439 Level Chicago Center
Thu 09:47:00 PM 42.0917 -87.8028 89° East 249 287 6,100 -1,361 Descending Chicago Center
Thu 09:47:58 PM 42.0833 -87.7167 97° East 226 260 4,300 -1,068 Descending Chicago TRACON
Thu 09:48:58 PM 42.0500 -87.6667 132° Southeast 220 253 4,000 -300 Descending Chicago TRACON

Login

Don't have an account? Register now (free) for customized features, flight alerts, and more!